Time;durP1;ratioP1;P1;durP2;ratioP2;P2;SDS_P1;SDS_P2;PMS_P1;PMS_P2;Temp;Humidity;BMP_temperature;BMP_pressure;BME280_temperature;BME280_humidity;BME280_pressure;Samples;Min_cycle;Max_cycle;Signal;HPM_P1;HPM_P2
2024/03/28 00:02:15;;;;;;;;;;;;;;;13.80;76.07;94168.08;108731;1278;25244;-87
2024/03/28 00:04:41;;;;;;;;;;;;;;;13.83;76.35;94157.13;108662;1280;25422;-86
2024/03/28 00:07:07;;;;;;;;;;;;;;;13.78;76.17;94148.70;108551;1275;126474;-86
2024/03/28 00:09:33;;;;;;;;;;;;;;;13.77;76.55;94146.51;108656;1280;23858;-87
2024/03/28 00:12:00;;;;;;;;;;;;;;;13.69;76.72;94130.21;108552;1280;125009;-86
2024/03/28 00:14:27;;;;;;;;;;;;;;;13.64;76.84;94145.88;108632;1280;23998;-87
2024/03/28 00:16:54;;;;;;;;;;;;;;;13.71;76.90;94133.50;108665;1275;23420;-86
2024/03/28 00:19:20;;;;;;;;;;;;;;;13.79;76.91;94131.69;108560;1275;124925;-86
2024/03/28 00:21:47;;;;;;;;;;;;;;;13.83;76.82;94135.73;108619;1274;22549;-86
2024/03/28 00:24:13;;;;;;;;;;;;;;;13.89;76.61;94131.73;108568;1275;124993;-86
2024/03/28 00:26:41;;;;;;;;;;;;;;;13.94;76.49;94135.20;108610;1273;25301;-86
2024/03/28 00:29:07;;;;;;;;;;;;;;;13.94;76.48;94134.98;108614;1280;125010;-86
2024/03/28 00:31:33;;;;;;;;;;;;;;;13.94;76.56;94133.10;108685;1279;22623;-86
2024/03/28 00:34:00;;;;;;;;;;;;;;;13.92;76.57;94133.20;108673;1273;22762;-86
2024/03/28 00:36:26;;;;;;;;;;;;;;;13.90;76.84;94135.96;108553;1280;124976;-86
2024/03/28 00:38:52;;;;;;;;;;;;;;;13.88;76.33;94120.56;108714;1280;22485;-85
2024/03/28 00:41:19;;;;;;;;;;;;;;;13.97;76.79;94124.27;108551;1275;125075;-86
2024/03/28 00:43:45;;;;;;;;;;;;;;;13.94;76.60;94114.20;108693;1280;23674;-83
2024/03/28 00:46:11;;;;;;;;;;;;;;;13.96;76.59;94114.73;108663;1275;22512;-84
2024/03/28 00:48:38;;;;;;;;;;;;;;;13.93;76.63;94105.58;108497;1280;125169;-83
2024/03/28 00:51:04;;;;;;;;;;;;;;;13.84;76.74;94108.48;108596;1275;22518;-84
2024/03/28 00:53:31;;;;;;;;;;;;;;;13.78;77.17;94105.48;108527;1275;125268;-83
2024/03/28 00:56:00;;;;;;;;;;;;;;;13.62;77.09;94101.16;108612;1278;22551;-84
2024/03/28 00:58:27;;;;;;;;;;;;;;;13.64;77.63;94105.07;108627;1280;23860;-84
2024/03/28 01:00:53;;;;;;;;;;;;;;;13.52;77.49;94107.65;108509;1275;124971;-84
2024/03/28 01:03:19;;;;;;;;;;;;;;;13.40;78.01;94097.84;108698;1275;22541;-84
2024/03/28 01:05:46;;;;;;;;;;;;;;;13.25;78.50;94098.59;108633;1280;125248;-83
2024/03/28 01:08:12;;;;;;;;;;;;;;;13.12;78.92;94095.27;108644;1280;23402;-84
2024/03/28 01:10:38;;;;;;;;;;;;;;;13.07;79.27;94092.64;108649;1280;23312;-84
2024/03/28 01:13:05;;;;;;;;;;;;;;;13.02;79.41;94095.44;108611;1274;124947;-84
2024/03/28 01:15:32;;;;;;;;;;;;;;;12.98;79.78;94105.55;108789;1272;23217;-84
2024/03/28 01:17:59;;;;;;;;;;;;;;;12.90;79.85;94109.80;108711;1280;124991;-84
2024/03/28 01:20:25;;;;;;;;;;;;;;;12.92;80.16;94108.23;108808;1279;22531;-84
2024/03/28 01:22:52;;;;;;;;;;;;;;;12.92;80.59;94111.21;108786;1278;22503;-84
2024/03/28 01:25:18;;;;;;;;;;;;;;;12.97;80.66;94105.50;108604;1278;124961;-84
2024/03/28 01:27:45;;;;;;;;;;;;;;;13.06;80.77;94096.85;108752;1280;22588;-84
2024/03/28 01:30:12;;;;;;;;;;;;;;;13.10;80.58;94096.56;108622;1279;124998;-84
2024/03/28 01:32:38;;;;;;;;;;;;;;;13.22;80.56;94097.54;108701;1269;22611;-84
2024/03/28 01:35:05;;;;;;;;;;;;;;;13.27;80.96;94091.57;108611;1278;125116;-84
2024/03/28 01:37:32;;;;;;;;;;;;;;;13.31;80.18;94105.66;108779;1279;22538;-84
2024/03/28 01:39:59;;;;;;;;;;;;;;;13.47;80.15;94106.67;108691;1279;22460;-84
2024/03/28 01:42:26;;;;;;;;;;;;;;;13.57;79.56;94101.82;108659;1280;125018;-84
2024/03/28 01:44:53;;;;;;;;;;;;;;;13.65;79.20;94095.95;108663;1280;22515;-84
2024/03/28 01:47:19;;;;;;;;;;;;;;;13.69;79.32;94101.35;108573;1278;125117;-84
2024/03/28 01:49:46;;;;;;;;;;;;;;;13.63;79.32;94113.11;108720;1273;22575;-84
2024/03/28 01:52:12;;;;;;;;;;;;;;;13.62;78.70;94107.78;108605;1280;22457;-84
2024/03/28 01:54:39;;;;;;;;;;;;;;;13.70;78.40;94100.56;108589;1280;124905;-84
2024/03/28 01:57:06;;;;;;;;;;;;;;;13.77;78.12;94102.35;108694;1275;23859;-84
2024/03/28 01:59:33;;;;;;;;;;;;;;;13.82;78.00;94094.45;108722;1278;125421;-84
2024/03/28 02:02:00;;;;;;;;;;;;;;;13.82;78.05;94089.63;108743;1274;22547;-84
2024/03/28 02:04:27;;;;;;;;;;;;;;;13.79;77.68;94081.06;108712;1277;22571;-86
2024/03/28 02:06:53;;;;;;;;;;;;;;;13.85;77.71;94084.54;108578;1280;124933;-86
2024/03/28 02:09:21;;;;;;;;;;;;;;;13.87;77.40;94092.89;108723;1274;22517;-86
2024/03/28 02:11:47;;;;;;;;;;;;;;;13.89;77.22;94085.38;108712;1272;125273;-87
2024/03/28 02:14:13;;;;;;;;;;;;;;;13.91;76.93;94077.91;108647;1275;23726;-86
2024/03/28 02:16:40;;;;;;;;;;;;;;;13.92;77.20;94065.43;108816;1280;25404;-86
2024/03/28 02:19:06;;;;;;;;;;;;;;;13.87;77.39;94079.16;108582;1275;125467;-86
2024/03/28 02:21:33;;;;;;;;;;;;;;;13.77;77.31;94065.35;108566;1279;22470;-86
2024/03/28 02:23:59;;;;;;;;;;;;;;;13.76;77.22;94062.41;108580;1280;124991;-86
2024/03/28 02:26:25;;;;;;;;;;;;;;;13.78;77.05;94053.96;108690;1280;24230;-86
2024/03/28 02:28:52;;;;;;;;;;;;;;;13.80;76.67;94052.82;108698;1280;23790;-86
2024/03/28 02:31:18;;;;;;;;;;;;;;;13.85;76.54;94058.22;108537;1273;125380;-85
2024/03/28 02:33:45;;;;;;;;;;;;;;;13.87;76.50;94055.72;108641;1280;23730;-86
2024/03/28 02:36:11;;;;;;;;;;;;;;;13.86;76.41;94054.36;108517;1275;125059;-86
2024/03/28 02:38:38;;;;;;;;;;;;;;;13.84;76.45;94058.38;108636;1275;25375;-86
2024/03/28 02:41:04;;;;;;;;;;;;;;;13.84;76.28;94051.33;108691;1273;25060;-86
2024/03/28 02:43:30;;;;;;;;;;;;;;;13.82;76.27;94048.65;108597;1278;23837;-85
2024/03/28 02:45:57;;;;;;;;;;;;;;;13.84;76.01;94042.62;108643;1275;22596;-86
2024/03/28 02:48:23;;;;;;;;;;;;;;;13.87;76.03;94041.63;108605;1275;125085;-86
2024/03/28 02:50:50;;;;;;;;;;;;;;;13.87;76.01;94035.36;108601;1273;22516;-87
2024/03/28 02:53:17;;;;;;;;;;;;;;;13.87;75.39;94022.05;108547;1280;125211;-85
2024/03/28 02:55:43;;;;;;;;;;;;;;;13.88;75.82;94029.98;108690;1275;23201;-86
2024/03/28 02:58:10;;;;;;;;;;;;;;;13.83;75.88;94027.47;108626;1278;22513;-87
2024/03/28 03:00:36;;;;;;;;;;;;;;;13.77;75.89;94033.34;108562;1280;125090;-86
2024/03/28 03:03:03;;;;;;;;;;;;;;;13.77;75.80;94035.48;108810;1280;22469;-87
2024/03/28 03:05:30;;;;;;;;;;;;;;;13.81;75.82;94029.23;108484;1280;125119;-86
2024/03/28 03:07:56;;;;;;;;;;;;;;;13.81;75.88;94034.49;108638;1280;22660;-85
2024/03/28 03:10:22;;;;;;;;;;;;;;;13.79;75.73;94036.33;108637;1273;22551;-86
2024/03/28 03:12:49;;;;;;;;;;;;;;;13.78;75.69;94035.85;108612;1280;124888;-86
2024/03/28 03:15:15;;;;;;;;;;;;;;;13.77;75.73;94029.02;108587;1279;22631;-85
2024/03/28 03:17:41;;;;;;;;;;;;;;;13.76;75.83;94024.16;108506;1275;125192;-86
2024/03/28 03:20:08;;;;;;;;;;;;;;;13.72;75.82;94020.55;108592;1275;22556;-86
2024/03/28 03:22:35;;;;;;;;;;;;;;;13.72;76.07;94026.66;108537;1280;25400;-84
2024/03/28 03:25:11;;;;;;;;;;;;;;;13.70;76.03;94023.59;108588;1275;124904;-84
2024/03/28 03:34:34;;;;;;;;;;;;;;;13.70;76.16;94016.39;108708;1273;22591;-84
2024/03/28 03:35:54;;;;;;;;;;;;;;;13.68;76.25;94011.58;108607;1271;124889;-85
2024/03/28 03:38:20;;;;;;;;;;;;;;;13.66;76.15;94003.88;108621;1280;22785;-84
2024/03/28 03:40:47;;;;;;;;;;;;;;;13.65;76.20;93994.59;108693;1280;22466;-84
2024/03/28 03:43:13;;;;;;;;;;;;;;;13.64;76.11;93993.23;108525;1274;124042;-84
2024/03/28 03:45:39;;;;;;;;;;;;;;;13.63;76.22;93992.08;108628;1275;22526;-84
2024/03/28 03:48:06;;;;;;;;;;;;;;;13.62;76.46;93975.17;108543;1278;125163;-84
2024/03/28 03:50:32;;;;;;;;;;;;;;;13.57;76.57;93971.46;108639;1280;24203;-86
2024/03/28 03:52:59;;;;;;;;;;;;;;;13.51;76.71;93987.69;108624;1280;22547;-84
2024/03/28 03:55:26;;;;;;;;;;;;;;;13.47;76.70;93993.55;108530;1278;125944;-84
2024/03/28 03:57:52;;;;;;;;;;;;;;;13.50;76.74;93995.98;108634;1280;22510;-84
2024/03/28 04:00:19;;;;;;;;;;;;;;;13.55;76.84;93985.20;108500;1280;125368;-84
2024/03/28 04:02:45;;;;;;;;;;;;;;;13.55;76.78;93990.16;108642;1271;24246;-83
2024/03/28 04:05:12;;;;;;;;;;;;;;;13.54;76.81;93995.68;108534;1280;125040;-84
2024/03/28 04:07:38;;;;;;;;;;;;;;;13.53;76.94;93997.40;108705;1280;22635;-84
2024/03/28 04:10:04;;;;;;;;;;;;;;;13.53;76.91;94012.17;108614;1280;22618;-84
2024/03/28 04:12:31;;;;;;;;;;;;;;;13.54;76.89;94020.58;108539;1280;125231;-84
2024/03/28 04:14:57;;;;;;;;;;;;;;;13.52;77.04;94020.63;108649;1275;22663;-84
2024/03/28 04:17:23;;;;;;;;;;;;;;;13.51;77.17;94019.23;108531;1276;125541;-84
2024/03/28 04:19:50;;;;;;;;;;;;;;;13.48;77.34;94029.05;108611;1275;22497;-84
2024/03/28 04:22:17;;;;;;;;;;;;;;;13.46;77.41;94046.04;108631;1278;22578;-84
2024/03/28 04:24:43;;;;;;;;;;;;;;;13.44;77.73;94044.05;108550;1275;125405;-84
2024/03/28 04:27:10;;;;;;;;;;;;;;;13.41;77.99;94046.61;108648;1275;22575;-84
2024/03/28 04:29:40;;;;;;;;;;;;;;;13.39;78.18;94046.71;108528;1278;125106;-84
2024/03/28 04:32:06;;;;;;;;;;;;;;;13.38;78.31;94044.27;108594;1271;22615;-84
2024/03/28 04:34:33;;;;;;;;;;;;;;;13.39;78.41;94047.13;108718;1280;22530;-84
2024/03/28 04:36:59;;;;;;;;;;;;;;;13.37;78.69;94043.27;108510;1280;125041;-84
2024/03/28 04:39:25;;;;;;;;;;;;;;;13.35;78.91;94042.30;108608;1280;23401;-84
2024/03/28 04:41:52;;;;;;;;;;;;;;;13.32;79.67;94043.17;108513;1280;124978;-84
2024/03/28 04:44:18;;;;;;;;;;;;;;;13.31;79.73;94041.81;108634;1280;22475;-84
2024/03/28 04:46:44;;;;;;;;;;;;;;;13.30;80.43;94039.15;108628;1275;25092;-84
2024/03/28 04:49:11;;;;;;;;;;;;;;;13.28;80.87;94022.77;108578;1280;125559;-84
2024/03/28 04:51:37;;;;;;;;;;;;;;;13.25;81.00;94031.67;108607;1280;22565;-84
2024/03/28 04:54:03;;;;;;;;;;;;;;;13.21;81.52;94025.36;108558;1280;125158;-84
2024/03/28 04:56:30;;;;;;;;;;;;;;;13.18;81.78;94015.24;108646;1281;22538;-84
2024/03/28 04:58:57;;;;;;;;;;;;;;;13.16;81.51;94002.40;108714;1274;22511;-84
2024/03/28 05:01:23;;;;;;;;;;;;;;;13.14;82.05;94006.77;108500;1280;124831;-84
2024/03/28 05:03:51;;;;;;;;;;;;;;;13.12;82.43;93999.11;108631;1281;25308;-84
2024/03/28 05:06:17;;;;;;;;;;;;;;;13.09;82.48;93997.80;108570;1273;124948;-84
2024/03/28 05:08:44;;;;;;;;;;;;;;;13.08;82.28;93982.30;108590;1275;22503;-84
2024/03/28 05:11:10;;;;;;;;;;;;;;;13.08;82.38;93986.48;108575;1275;125520;-83
2024/03/28 05:13:37;;;;;;;;;;;;;;;13.08;82.11;93973.81;108670;1281;22564;-84
2024/03/28 05:16:04;;;;;;;;;;;;;;;13.11;82.13;93979.40;108622;1275;24842;-84
2024/03/28 05:18:31;;;;;;;;;;;;;;;13.12;82.11;93982.16;108572;1278;125076;-84
2024/03/28 05:20:57;;;;;;;;;;;;;;;13.11;82.37;93986.33;108720;1280;22562;-84
2024/03/28 05:23:23;;;;;;;;;;;;;;;13.10;82.34;93998.90;108711;1279;125474;-84
2024/03/28 05:25:50;;;;;;;;;;;;;;;13.10;82.72;94008.86;108725;1278;22536;-84
2024/03/28 05:28:16;;;;;;;;;;;;;;;13.09;82.35;94013.48;108793;1274;22540;-84
2024/03/28 05:30:43;;;;;;;;;;;;;;;13.08;82.04;94029.65;108642;1278;125070;-83
2024/03/28 05:33:09;;;;;;;;;;;;;;;13.11;80.70;94028.51;108628;1281;25414;-83
2024/03/28 05:35:35;;;;;;;;;;;;;;;13.14;80.70;94053.40;108516;1279;125612;-83
2024/03/28 05:38:02;;;;;;;;;;;;;;;13.15;81.21;94054.91;108645;1276;25897;-83
2024/03/28 05:40:28;;;;;;;;;;;;;;;13.12;81.69;94069.98;108590;1280;22514;-84
2024/03/28 05:42:54;;;;;;;;;;;;;;;13.10;81.74;94082.73;108508;1276;125002;-84
2024/03/28 05:45:21;;;;;;;;;;;;;;;13.07;81.50;94083.24;108630;1275;22621;-83
2024/03/28 05:47:47;;;;;;;;;;;;;;;13.06;82.05;94101.77;108530;1279;125172;-84
2024/03/28 05:50:14;;;;;;;;;;;;;;;13.06;82.04;94105.15;108661;1278;22518;-83
2024/03/28 05:52:40;;;;;;;;;;;;;;;13.04;81.96;94107.95;108754;1280;22626;-84
2024/03/28 05:55:07;;;;;;;;;;;;;;;13.03;82.33;94099.39;108593;1280;124980;-84
2024/03/28 05:57:33;;;;;;;;;;;;;;;12.99;82.27;94093.36;108652;1280;22535;-83
2024/03/28 06:00:00;;;;;;;;;;;;;;;12.97;83.55;94106.64;108585;1279;124954;-83
2024/03/28 06:02:26;;;;;;;;;;;;;;;12.90;84.13;94113.55;108636;1278;22549;-84
2024/03/28 06:04:53;;;;;;;;;;;;;;;12.84;85.72;94118.13;108709;1280;22457;-83
2024/03/28 06:07:19;;;;;;;;;;;;;;;12.74;87.42;94110.10;108670;1279;124902;-83
2024/03/28 06:09:46;;;;;;;;;;;;;;;12.61;88.02;94113.33;108731;1279;22605;-83
2024/03/28 06:12:12;;;;;;;;;;;;;;;12.52;89.11;94115.92;108523;1264;125428;-83
2024/03/28 06:14:40;;;;;;;;;;;;;;;12.45;89.88;94112.11;108771;1272;23115;-83
2024/03/28 06:17:06;;;;;;;;;;;;;;;12.38;90.59;94109.36;108736;1271;125079;-84
2024/03/28 06:19:33;;;;;;;;;;;;;;;12.37;91.87;94104.92;108835;1273;22507;-83
2024/03/28 06:21:59;;;;;;;;;;;;;;;12.33;93.33;94100.44;108733;1280;22472;-83
2024/03/28 06:24:25;;;;;;;;;;;;;;;12.27;93.88;94103.93;108618;1278;124958;-84
2024/03/28 06:26:52;;;;;;;;;;;;;;;12.17;94.43;94103.63;108613;1278;22592;-83
2024/03/28 06:29:20;;;;;;;;;;;;;;;12.13;95.31;94100.59;108588;1280;125458;-83
2024/03/28 06:31:47;;;;;;;;;;;;;;;12.08;96.02;94104.13;108600;1274;22538;-83
2024/03/28 06:34:13;;;;;;;;;;;;;;;12.00;96.55;94095.35;108719;1275;23693;-84
2024/03/28 06:36:40;;;;;;;;;;;;;;;11.91;96.94;94089.40;108591;1278;124930;-83
2024/03/28 06:39:06;;;;;;;;;;;;;;;11.85;97.52;94099.45;108624;1280;22483;-83
2024/03/28 06:41:32;;;;;;;;;;;;;;;11.80;97.63;94099.52;108495;1278;125025;-83
2024/03/28 06:43:59;;;;;;;;;;;;;;;11.75;97.65;94099.04;108716;1280;22472;-83
2024/03/28 06:46:25;;;;;;;;;;;;;;;11.73;97.62;94113.90;108812;1276;22534;-83
2024/03/28 06:48:51;;;;;;;;;;;;;;;11.74;98.03;94112.77;108585;1280;125000;-83
2024/03/28 06:51:18;;;;;;;;;;;;;;;11.77;97.89;94117.06;108733;1279;22506;-83
2024/03/28 06:53:44;;;;;;;;;;;;;;;11.79;97.98;94116.84;108537;1276;125054;-83
2024/03/28 06:56:10;;;;;;;;;;;;;;;11.80;98.10;94114.09;108789;1280;22543;-84
2024/03/28 06:58:37;;;;;;;;;;;;;;;11.81;97.71;94114.73;108726;1280;22466;-83
2024/03/28 07:01:03;;;;;;;;;;;;;;;11.83;96.96;94109.48;108597;1278;125414;-83
2024/03/28 07:03:30;;;;;;;;;;;;;;;11.88;97.65;94107.98;108656;1280;22552;-83
2024/03/28 07:05:56;;;;;;;;;;;;;;;11.94;98.02;94115.66;108648;1272;125017;-83
2024/03/28 07:08:23;;;;;;;;;;;;;;;12.01;99.04;94118.52;108669;1275;22551;-83
2024/03/28 07:10:49;;;;;;;;;;;;;;;12.06;99.12;94121.72;108614;1279;25250;-83
2024/03/28 07:13:15;;;;;;;;;;;;;;;12.10;99.49;94124.40;108652;1280;125139;-83
2024/03/28 07:15:42;;;;;;;;;;;;;;;12.13;100.00;94130.77;108606;1280;22478;-83
2024/03/28 07:18:08;;;;;;;;;;;;;;;12.16;100.00;94137.45;108537;1281;125189;-83
2024/03/28 07:20:34;;;;;;;;;;;;;;;12.17;100.00;94137.98;108777;1272;22508;-83
2024/03/28 07:23:01;;;;;;;;;;;;;;;12.16;100.00;94143.91;108644;1281;23099;-83
2024/03/28 07:25:28;;;;;;;;;;;;;;;12.13;100.00;94150.09;108652;1277;124852;-83
2024/03/28 07:27:55;;;;;;;;;;;;;;;12.11;100.00;94151.02;108647;1280;22500;-83
2024/03/28 07:30:22;;;;;;;;;;;;;;;12.10;100.00;94156.84;108655;1270;125154;-83
2024/03/28 07:32:48;;;;;;;;;;;;;;;12.08;100.00;94166.55;108713;1279;22565;-83
2024/03/28 07:35:15;;;;;;;;;;;;;;;12.05;100.00;94159.71;108519;1271;125246;-83
2024/03/28 07:37:41;;;;;;;;;;;;;;;12.03;100.00;94164.77;108583;1280;23564;-83
2024/03/28 07:40:09;;;;;;;;;;;;;;;12.04;100.00;94165.24;108730;1275;25237;-84
2024/03/28 07:42:36;;;;;;;;;;;;;;;12.05;100.00;94158.30;108561;1280;125110;-83
2024/03/28 07:45:02;;;;;;;;;;;;;;;12.08;100.00;94158.42;108651;1281;22464;-83
2024/03/28 07:47:29;;;;;;;;;;;;;;;12.08;99.74;94160.36;108505;1280;125342;-83
2024/03/28 07:49:56;;;;;;;;;;;;;;;12.09;98.86;94160.79;108703;1281;22503;-83
2024/03/28 07:52:22;;;;;;;;;;;;;;;12.08;97.08;94166.39;108600;1281;22545;-83
2024/03/28 07:54:48;;;;;;;;;;;;;;;12.06;96.55;94165.17;108520;1275;125230;-83
2024/03/28 07:57:15;;;;;;;;;;;;;;;12.04;94.08;94171.87;108700;1278;22494;-84
2024/03/28 07:59:41;;;;;;;;;;;;;;;12.05;93.61;94169.08;108576;1277;125025;-84
2024/03/28 08:02:07;;;;;;;;;;;;;;;12.06;93.14;94169.55;108596;1279;22504;-83
2024/03/28 08:04:34;;;;;;;;;;;;;;;12.04;89.17;94170.95;108695;1281;22538;-84
2024/03/28 08:07:00;;;;;;;;;;;;;;;12.03;85.30;94180.80;108510;1276;125156;-83
2024/03/28 08:09:26;;;;;;;;;;;;;;;12.03;84.17;94178.68;108602;1275;24244;-83
2024/03/28 08:11:53;;;;;;;;;;;;;;;12.04;84.17;94187.48;108538;1281;124992;-83
2024/03/28 08:14:19;;;;;;;;;;;;;;;11.99;85.08;94194.40;108641;1275;22568;-83
2024/03/28 08:16:46;;;;;;;;;;;;;;;11.99;86.70;94198.61;108616;1279;22464;-83
2024/03/28 08:19:13;;;;;;;;;;;;;;;11.98;87.21;94207.61;108670;1273;125063;-83
2024/03/28 08:21:39;;;;;;;;;;;;;;;12.00;88.94;94210.02;108694;1270;23248;-83
2024/03/28 08:24:06;;;;;;;;;;;;;;;12.09;90.02;94203.21;108559;1279;125660;-83
2024/03/28 08:26:33;;;;;;;;;;;;;;;12.21;89.73;94197.45;108614;1269;25289;-84
2024/03/28 08:28:59;;;;;;;;;;;;;;;12.28;88.27;94189.41;108681;1280;22616;-83
2024/03/28 08:31:26;;;;;;;;;;;;;;;12.31;87.36;94188.60;108641;1280;125383;-83
2024/03/28 08:33:52;;;;;;;;;;;;;;;12.35;87.79;94190.35;108603;1281;22662;-84
2024/03/28 08:36:18;;;;;;;;;;;;;;;12.44;87.84;94180.49;108655;1280;124978;-84
2024/03/28 08:38:46;;;;;;;;;;;;;;;12.56;86.40;94179.26;108637;1281;25230;-83
2024/03/28 08:41:12;;;;;;;;;;;;;;;12.65;84.03;94180.89;108550;1281;125619;-83
2024/03/28 08:43:39;;;;;;;;;;;;;;;12.71;83.23;94173.40;108702;1270;22500;-84
2024/03/28 08:46:05;;;;;;;;;;;;;;;12.73;81.11;94168.20;108638;1280;23263;-83
2024/03/28 08:48:31;;;;;;;;;;;;;;;12.73;80.18;94180.29;108615;1279;125148;-83
2024/03/28 08:50:59;;;;;;;;;;;;;;;12.80;81.58;94198.10;108728;1279;22483;-84
2024/03/28 08:53:27;;;;;;;;;;;;;;;12.93;80.37;94201.04;108627;1280;125000;-84
2024/03/28 08:55:55;;;;;;;;;;;;;;;12.99;78.58;94206.70;108766;1280;22462;-84
2024/03/28 08:58:21;;;;;;;;;;;;;;;13.01;79.53;94224.39;108696;1279;22519;-83
2024/03/28 09:00:47;;;;;;;;;;;;;;;13.09;79.12;94231.45;108671;1280;124960;-84
2024/03/28 09:03:14;;;;;;;;;;;;;;;13.08;78.20;94236.19;108785;1280;25372;-83
2024/03/28 09:05:40;;;;;;;;;;;;;;;13.05;78.07;94231.38;108563;1274;125268;-84
2024/03/28 09:08:08;;;;;;;;;;;;;;;13.04;78.25;94245.97;108701;1279;22639;-83
2024/03/28 09:10:36;;;;;;;;;;;;;;;13.04;78.58;94257.81;108732;1280;24185;-83
2024/03/28 09:13:02;;;;;;;;;;;;;;;13.01;77.17;94269.39;108560;1277;125098;-83
2024/03/28 09:15:30;;;;;;;;;;;;;;;12.92;76.97;94271.56;108736;1272;25405;-83
2024/03/28 09:17:56;;;;;;;;;;;;;;;12.83;76.20;94274.23;108564;1281;124936;-84
2024/03/28 09:20:26;;;;;;;;;;;;;;;12.73;76.30;94285.71;108737;1273;22503;-84
2024/03/28 09:22:52;;;;;;;;;;;;;;;12.59;75.58;94294.95;108649;1280;22611;-83
2024/03/28 09:25:19;;;;;;;;;;;;;;;12.45;75.73;94314.80;108514;1281;125390;-84
2024/03/28 09:27:45;;;;;;;;;;;;;;;12.29;75.16;94318.00;108631;1274;24236;-83
2024/03/28 09:30:14;;;;;;;;;;;;;;;12.13;75.54;94327.63;108583;1277;125001;-83
2024/03/28 09:32:40;;;;;;;;;;;;;;;11.99;76.28;94329.16;108661;1280;22543;-83
2024/03/28 09:35:08;;;;;;;;;;;;;;;11.88;76.93;94340.48;108508;1281;125094;-83
2024/03/28 09:37:34;;;;;;;;;;;;;;;11.82;77.80;94338.71;108647;1273;25231;-84
2024/03/28 09:40:01;;;;;;;;;;;;;;;11.83;78.84;94348.56;108416;1281;315653;-83
2024/03/28 09:42:28;;;;;;;;;;;;;;;11.87;79.32;94357.16;108577;1273;125244;-84
2024/03/28 09:44:54;;;;;;;;;;;;;;;11.94;79.43;94366.53;108704;1281;22774;-83
2024/03/28 09:47:21;;;;;;;;;;;;;;;11.91;79.11;94381.38;108610;1281;125072;-83
2024/03/28 09:49:47;;;;;;;;;;;;;;;11.84;78.02;94386.92;108600;1280;22518;-84
2024/03/28 09:52:14;;;;;;;;;;;;;;;11.74;78.57;94395.54;108660;1281;22517;-83
2024/03/28 09:54:41;;;;;;;;;;;;;;;11.63;79.31;94402.71;108598;1279;125292;-83
2024/03/28 09:57:08;;;;;;;;;;;;;;;11.54;79.80;94403.20;108685;1279;22723;-83
2024/03/28 09:59:34;;;;;;;;;;;;;;;11.47;80.83;94391.37;108552;1280;125295;-83
2024/03/28 10:02:03;;;;;;;;;;;;;;;11.40;80.83;94385.20;108648;1274;24606;-83
2024/03/28 10:04:29;;;;;;;;;;;;;;;11.38;80.82;94397.63;108672;1280;22564;-85
2024/03/28 10:06:57;;;;;;;;;;;;;;;11.40;80.68;94390.03;108545;1274;125072;-85
2024/03/28 10:09:23;;;;;;;;;;;;;;;11.43;79.95;94386.17;108655;1280;22548;-86
2024/03/28 10:11:50;;;;;;;;;;;;;;;11.48;80.08;94384.10;108569;1273;124918;-85
2024/03/28 10:14:22;;;;;;;;;;;;;;;11.53;80.35;94390.05;108667;1280;22721;-85
2024/03/28 10:16:49;;;;;;;;;;;;;;;11.61;80.30;94397.38;108589;1273;22892;-85
2024/03/28 10:19:17;;;;;;;;;;;;;;;11.67;80.32;94408.98;108607;1280;124907;-85
2024/03/28 10:21:44;;;;;;;;;;;;;;;11.76;80.39;94424.98;108657;1280;22614;-85
2024/03/28 10:24:14;;;;;;;;;;;;;;;11.85;78.90;94436.17;108553;1275;125289;-86
2024/03/28 10:26:43;;;;;;;;;;;;;;;11.90;77.28;94447.83;108624;1277;22501;-85
2024/03/28 10:29:12;;;;;;;;;;;;;;;11.89;75.80;94450.69;108544;1274;125241;-86
2024/03/28 10:31:42;;;;;;;;;;;;;;;11.89;76.57;94459.52;108634;1280;22510;-85
2024/03/28 10:34:17;;;;;;;;;;;;;;;11.86;75.54;94456.39;108658;1281;22504;-86
2024/03/28 10:36:47;;;;;;;;;;;;;;;11.82;74.56;94459.55;108527;1280;124991;-85
2024/03/28 10:39:14;;;;;;;;;;;;;;;11.77;74.35;94458.84;108663;1278;23237;-85
2024/03/28 10:41:40;;;;;;;;;;;;;;;11.73;74.52;94461.80;108555;1279;125292;-85
2024/03/28 10:44:08;;;;;;;;;;;;;;;11.73;74.81;94464.55;108699;1280;24418;-86
2024/03/28 10:46:35;;;;;;;;;;;;;;;11.73;74.81;94469.70;108704;1274;22513;-86
2024/03/28 10:49:06;;;;;;;;;;;;;;;11.68;74.25;94470.90;108608;1280;125457;-85
2024/03/28 10:51:35;;;;;;;;;;;;;;;11.63;75.25;94481.69;108690;1274;22493;-86
2024/03/28 10:54:05;;;;;;;;;;;;;;;11.51;75.25;94484.38;109954;1276;124841;-85
2024/03/28 10:56:31;;;;;;;;;;;;;;;11.36;75.57;94486.10;110033;1274;23150;-86
2024/03/28 10:59:01;;;;;;;;;;;;;;;11.29;75.69;94482.69;110012;1280;22977;-86
2024/03/28 11:01:31;;;;;;;;;;;;;;;11.26;76.14;94480.31;109938;1273;124734;-86
2024/03/28 11:03:58;;;;;;;;;;;;;;;11.27;76.24;94479.22;109997;1274;23031;-86
2024/03/28 11:06:25;;;;;;;;;;;;;;;11.28;76.35;94472.34;109878;1273;125718;-86
2024/03/28 11:08:57;;;;;;;;;;;;;;;11.30;76.44;94474.50;110011;1276;22454;-86
2024/03/28 11:11:24;;;;;;;;;;;;;;;11.30;76.07;94477.35;109886;1276;125065;-86
2024/03/28 11:13:50;;;;;;;;;;;;;;;11.30;76.23;94475.99;110013;1280;23157;-86
2024/03/28 11:16:20;;;;;;;;;;;;;;;11.31;77.05;94480.13;110004;1273;22388;-87
2024/03/28 11:18:46;;;;;;;;;;;;;;;11.36;77.01;94481.97;109387;1276;124848;-85
2024/03/28 11:21:13;;;;;;;;;;;;;;;11.39;77.41;94487.52;108656;1273;22553;-85
2024/03/28 11:23:46;;;;;;;;;;;;;;;11.44;77.46;94482.09;108450;1273;125582;-85
2024/03/28 11:26:19;;;;;;;;;;;;;;;11.46;77.10;94484.14;108662;1273;24248;-85
2024/03/28 11:28:45;;;;;;;;;;;;;;;11.45;76.72;94483.08;108696;1267;23958;-85
2024/03/28 11:31:13;;;;;;;;;;;;;;;11.37;76.20;94489.70;108494;1280;125276;-85
2024/03/28 11:33:40;;;;;;;;;;;;;;;11.29;76.39;94494.56;108631;1280;22512;-85
2024/03/28 11:36:06;;;;;;;;;;;;;;;11.21;76.83;94493.72;108550;1279;125092;-85
2024/03/28 11:38:33;;;;;;;;;;;;;;;11.12;77.27;94502.50;108662;1280;22529;-85
2024/03/28 11:41:00;;;;;;;;;;;;;;;11.01;77.03;94501.55;108676;1278;24289;-85
2024/03/28 11:43:26;;;;;;;;;;;;;;;10.88;77.35;94498.06;108496;1280;125589;-86
2024/03/28 11:45:53;;;;;;;;;;;;;;;10.79;77.54;94508.06;108627;1280;22510;-85
2024/03/28 11:48:23;;;;;;;;;;;;;;;10.76;77.84;94505.88;108486;1279;125173;-86
2024/03/28 11:50:49;;;;;;;;;;;;;;;10.78;77.55;94504.31;108693;1273;22504;-86
2024/03/28 11:53:16;;;;;;;;;;;;;;;10.82;78.10;94503.40;108534;1280;126944;-85
2024/03/28 11:55:43;;;;;;;;;;;;;;;10.86;77.93;94502.64;108579;1280;22574;-85
2024/03/28 11:58:12;;;;;;;;;;;;;;;10.92;77.72;94510.58;108684;1274;22554;-85
2024/03/28 12:00:39;;;;;;;;;;;;;;;10.91;76.44;94517.48;108575;1277;124989;-85
2024/03/28 12:03:06;;;;;;;;;;;;;;;10.90;76.80;94513.17;108616;1275;22607;-86
2024/03/28 12:05:32;;;;;;;;;;;;;;;10.90;76.47;94512.17;108571;1280;125113;-85
2024/03/28 12:07:58;;;;;;;;;;;;;;;10.92;76.68;94505.67;108614;1273;22488;-85
2024/03/28 12:10:25;;;;;;;;;;;;;;;10.96;76.14;94498.38;108678;1280;22480;-85
2024/03/28 12:12:51;;;;;;;;;;;;;;;10.95;76.12;94497.54;108536;1278;125109;-86
2024/03/28 12:15:17;;;;;;;;;;;;;;;10.94;75.79;94492.06;108664;1275;22604;-85
2024/03/28 12:17:44;;;;;;;;;;;;;;;10.97;76.09;94484.05;108563;1280;125818;-86
2024/03/28 12:20:11;;;;;;;;;;;;;;;11.02;75.78;94488.94;108647;1273;22632;-85
2024/03/28 12:22:37;;;;;;;;;;;;;;;11.07;75.99;94477.14;108667;1273;24214;-86
2024/03/28 12:25:13;;;;;;;;;;;;;;;11.17;77.13;94486.41;108565;1276;125438;-86
2024/03/28 12:27:40;;;;;;;;;;;;;;;11.28;75.99;94496.04;108665;1280;22522;-86
2024/03/28 12:30:10;;;;;;;;;;;;;;;11.27;75.20;94515.38;108538;1275;125100;-87
2024/03/28 12:32:37;;;;;;;;;;;;;;;11.21;75.58;94520.39;108707;1279;22618;-86
2024/03/28 12:35:05;;;;;;;;;;;;;;;11.18;75.81;94530.05;108734;1272;22471;-86
2024/03/28 12:37:32;;;;;;;;;;;;;;;11.20;76.37;94543.55;108672;1280;22478;-86